Winchester, Texas
Current Conditions -  °F | °C
As of 9:35 AM on Friday 28 Nov 2014 (Local Time) from K3T5 Reporting Station
Scattered Clouds Scattered Clouds  
Wind Chill: 61°   Ceiling: Unl
Heat Index: 61°   Visibility: 10mi
Dew Point: 53°   Wind: 8mph
Humidity: 74%   Direction: 160°SSE
Pressure: 30.3"   Gusts: NA
Location:  29.8569°N, 96.9311°W
Report Text: K3T5 281535Z AUTO 16007KT 10SM SCT027 SCT036 16/11 A3030 RMK AO2 T01600114
Loading
Personal Weather Stations






























Interactive Weather Map New forecast layout! Learn more

10-Day Weather Forecast

Advertisements
Track Severe Weather on mobile